createdAt,value
2022-11-25T01:01:28.949Z,100550.84
2022-11-25T01:03:56.858Z,100541.88
2022-11-25T01:06:26.015Z,100536.47
2022-11-25T01:09:02.779Z,100534.63
2022-11-25T01:11:31.554Z,100529.22
2022-11-25T01:14:01.801Z,100532.59
2022-11-25T01:16:32.943Z,100529.97
2022-11-25T01:19:11.832Z,100531.31
2022-11-25T01:21:51.790Z,100516.91
2022-11-25T01:24:20.731Z,100512.38
2022-11-25T01:26:49.085Z,100520.63
2022-11-25T01:29:18.626Z,100510.41
2022-11-25T01:31:49.705Z,100520.63
2022-11-25T01:34:27.589Z,100512.81
2022-11-25T01:36:58.953Z,100506.91
2022-11-25T01:39:38.939Z,100511.63
2022-11-25T01:42:09.849Z,100524.81
2022-11-25T01:44:41.727Z,100524.50
2022-11-25T01:47:16.236Z,100535.19
2022-11-25T01:49:51.416Z,100530.97
2022-11-25T01:52:30.338Z,100521.69
2022-11-25T01:55:15.910Z,100519.81
2022-11-25T01:57:49.372Z,100533.84
2022-11-25T02:00:17.570Z,100524.72
2022-11-25T02:02:50.652Z,100520.63
2022-11-25T02:05:33.773Z,100513.72
2022-11-25T02:08:27.107Z,100523.38
2022-11-25T02:11:01.684Z,100519.63
2022-11-25T02:13:33.082Z,100524.19
2022-11-25T02:16:05.591Z,100527.25
2022-11-25T02:18:33.506Z,100527.09
2022-11-25T02:21:02.688Z,100537.91
2022-11-25T02:23:41.080Z,100521.22
2022-11-25T02:26:14.970Z,100517.91
2022-11-25T02:28:45.095Z,100518.28
2022-11-25T02:31:22.632Z,100525.09
2022-11-25T02:33:56.946Z,100522.63
2022-11-25T02:36:25.077Z,100533.16
2022-11-25T02:39:04.942Z,100546.38
2022-11-25T02:41:43.305Z,100543.66
2022-11-25T02:44:11.829Z,100543.88
2022-11-25T02:46:40.553Z,100558.00
2022-11-25T02:49:11.873Z,100557.09
2022-11-25T02:51:45.337Z,100560.22
2022-11-25T02:54:17.313Z,100570.72
2022-11-25T02:56:45.204Z,100573.41
2022-11-25T02:59:13.644Z,100560.41
2022-11-25T03:01:42.139Z,100564.28
2022-11-25T03:04:17.948Z,100551.59
2022-11-25T03:06:49.966Z,100559.91
2022-11-25T03:09:28.822Z,100552.47
2022-11-25T03:12:18.212Z,100552.78
2022-11-25T03:14:47.752Z,100548.72
2022-11-25T03:17:15.773Z,100554.16
2022-11-25T03:19:44.072Z,100545.72
2022-11-25T03:22:14.223Z,100550.13
2022-11-25T03:24:45.755Z,100548.09
2022-11-25T03:27:14.441Z,100556.41
2022-11-25T03:29:50.336Z,100552.09
2022-11-25T03:32:18.924Z,100556.16
2022-11-25T03:34:51.170Z,100556.84
2022-11-25T03:37:19.917Z,100572.09
2022-11-25T03:39:49.210Z,100582.75
2022-11-25T03:42:22.449Z,100581.94
2022-11-25T03:44:50.995Z,100583.13
2022-11-25T03:47:19.944Z,100583.50
2022-11-25T03:49:49.228Z,100586.06
2022-11-25T03:52:23.062Z,100582.28
2022-11-25T03:54:55.794Z,100579.22
2022-11-25T03:57:38.556Z,100583.53
2022-11-25T04:00:15.817Z,100586.09
2022-11-25T04:03:00.007Z,100564.69
2022-11-25T04:05:28.674Z,100571.44
2022-11-25T04:08:00.405Z,100570.78
2022-11-25T04:10:31.790Z,100567.66
2022-11-25T04:13:00.976Z,100563.78
2022-11-25T04:15:47.671Z,100574.63
2022-11-25T04:18:21.484Z,100571.91
2022-11-25T04:20:55.238Z,100576.59
2022-11-25T04:23:25.672Z,100579.31
2022-11-25T04:26:05.443Z,100570.19
2022-11-25T04:28:41.661Z,100580.59
2022-11-25T04:31:32.151Z,100584.97
2022-11-25T04:34:03.411Z,100580.72
2022-11-25T04:36:42.217Z,100583.09
2022-11-25T04:39:10.721Z,100585.94
2022-11-25T04:41:39.714Z,100588.44
2022-11-25T04:44:10.654Z,100595.59
2022-11-25T04:46:40.916Z,100586.47
2022-11-25T04:49:10.476Z,100596.44
2022-11-25T04:51:40.313Z,100601.84
2022-11-25T04:54:08.279Z,100600.47
2022-11-25T04:56:38.320Z,100589.28
2022-11-25T04:59:27.311Z,100584.00
2022-11-25T05:01:55.291Z,100588.16
2022-11-25T05:04:52.170Z,100589.41
2022-11-25T05:07:21.946Z,100574.91
2022-11-25T05:09:52.651Z,100570.94
2022-11-25T05:12:38.420Z,100594.69
2022-11-25T05:15:14.575Z,100589.09
2022-11-25T05:18:05.997Z,100598.06
2022-11-25T05:20:46.056Z,100604.75
2022-11-25T05:23:22.239Z,100602.22
2022-11-25T05:26:24.270Z,100603.09
2022-11-25T05:29:18.467Z,100608.63
2022-11-25T05:31:49.904Z,100607.25
2022-11-25T05:34:24.555Z,100598.81
2022-11-25T05:37:01.733Z,100618.81
2022-11-25T10:00:33.481Z,100704.78
2022-11-25T10:03:03.378Z,100700.25
2022-11-25T10:06:10.645Z,100702.81
2022-11-25T10:08:43.444Z,100697.13
2022-11-25T10:11:40.504Z,100702.28
2022-11-25T10:14:38.643Z,100708.00
2022-11-25T10:18:03.373Z,100709.03
2022-11-25T10:20:42.541Z,100709.41
2022-11-25T10:24:12.092Z,100706.34
2022-11-25T10:30:11.389Z,100705.03
2022-11-25T10:33:02.292Z,100708.75
2022-11-25T10:35:45.280Z,100712.44
2022-11-25T10:38:24.422Z,100703.19
2022-11-25T10:41:29.345Z,100711.47
2022-11-25T10:51:12.846Z,100707.31
2022-11-25T10:53:43.495Z,100705.66
2022-11-25T10:56:21.019Z,100715.88
2022-11-25T10:58:51.818Z,100714.13
2022-11-25T11:01:26.887Z,100714.66
2022-11-25T11:04:07.048Z,100711.63
2022-11-25T11:06:40.335Z,100712.50
2022-11-25T11:09:35.605Z,100713.16
2022-11-25T11:12:16.592Z,100718.66
2022-11-25T11:14:44.468Z,100717.13
2022-11-25T11:17:37.108Z,100714.28
2022-11-25T11:20:08.551Z,100717.66
2022-11-25T11:22:37.250Z,100714.97
2022-11-25T11:25:28.927Z,100715.59
2022-11-25T11:27:57.097Z,100721.91
2022-11-25T11:30:30.266Z,100698.50
2022-11-25T11:33:06.545Z,100706.28
2022-11-25T11:35:55.668Z,100710.53
2022-11-25T11:38:25.054Z,100710.53
2022-11-25T11:41:18.621Z,100719.00
2022-11-25T11:44:16.078Z,100721.19
2022-11-25T11:51:23.813Z,100713.22
2022-11-25T11:53:58.092Z,100717.13
2022-11-25T11:56:44.575Z,100712.25
2022-11-25T11:59:22.040Z,100714.28
2022-11-25T12:02:06.132Z,100714.47
2022-11-25T12:04:52.730Z,100719.56
2022-11-25T12:07:50.931Z,100707.88
2022-11-25T12:10:41.361Z,100709.59
2022-11-25T12:13:19.711Z,100702.63
2022-11-25T12:16:03.224Z,100706.56
2022-11-25T12:19:02.854Z,100706.19
2022-11-25T12:22:00.780Z,100711.47
2022-11-25T12:24:58.507Z,100705.94
2022-11-25T12:27:41.065Z,100712.88
2022-11-25T12:30:20.868Z,100703.38
2022-11-25T12:33:00.631Z,100701.19
2022-11-25T12:35:32.004Z,100694.44
2022-11-25T12:38:11.690Z,100692.22
2022-11-25T12:41:03.774Z,100683.75
2022-11-25T12:43:46.670Z,100685.97
2022-11-25T12:46:35.752Z,100683.25
2022-11-25T12:49:04.481Z,100681.59
2022-11-25T12:51:35.588Z,100677.19
2022-11-25T12:54:22.257Z,100684.50
2022-11-25T12:57:44.418Z,100691.44
2022-11-25T13:00:41.176Z,100680.44
2022-11-25T13:03:46.940Z,100695.00
2022-11-25T13:06:23.546Z,100687.22
2022-11-25T13:08:59.127Z,100692.13
2022-11-25T13:11:41.614Z,100693.19
2022-11-25T13:14:37.024Z,100700.09
2022-11-25T13:17:18.451Z,100705.34
2022-11-25T13:19:49.646Z,100705.38
2022-11-25T13:22:18.923Z,100704.84
2022-11-25T13:24:47.097Z,100705.03
2022-11-25T13:27:54.093Z,100702.31
2022-11-25T13:30:34.705Z,100702.00
2022-11-25T13:33:09.507Z,100707.75
2022-11-25T13:35:43.679Z,100714.69
2022-11-25T13:38:37.477Z,100711.47
2022-11-25T13:41:57.018Z,100720.44
2022-11-25T13:45:12.134Z,100725.72
2022-11-25T13:48:55.245Z,100719.28
2022-11-25T13:51:47.300Z,100720.31
2022-11-25T13:54:42.861Z,100715.03
2022-11-25T13:57:42.547Z,100724.19
2022-11-25T14:00:15.811Z,100718.78
2022-11-25T14:02:50.033Z,100725.19
2022-11-25T14:05:35.798Z,100724.19
2022-11-25T14:08:24.898Z,100726.72
2022-11-25T14:10:55.758Z,100717.41
2022-11-25T14:13:50.127Z,100724.03
2022-11-25T14:19:59.168Z,100733.88
2022-11-25T14:23:03.377Z,100719.94
2022-11-25T14:25:43.252Z,100727.59
2022-11-25T14:28:27.018Z,100728.09
2022-11-25T14:31:01.026Z,100729.97
2022-11-25T14:33:33.415Z,100728.09
2022-11-25T14:36:35.266Z,100730.31
2022-11-25T14:39:14.151Z,100730.81
2022-11-25T14:41:44.540Z,100730.13
2022-11-25T14:44:18.703Z,100740.47
2022-11-25T14:46:52.488Z,100747.09
2022-11-25T14:49:46.606Z,100749.97
2022-11-25T14:55:30.778Z,100763.03
2022-11-25T14:57:59.043Z,100773.03
2022-11-25T15:00:27.731Z,100764.75
2022-11-25T15:03:00.836Z,100772.22
2022-11-25T15:05:37.140Z,100761.16
2022-11-25T15:08:13.729Z,100766.91
2022-11-25T15:10:51.419Z,100770.66
2022-11-25T15:13:22.151Z,100771.09
2022-11-25T15:15:51.813Z,100767.88
2022-11-25T15:18:21.652Z,100764.97
2022-11-25T15:20:51.379Z,100763.97
2022-11-25T15:23:32.443Z,100769.75
2022-11-25T15:26:05.043Z,100770.03
2022-11-25T15:28:52.117Z,100778.16
2022-11-25T15:31:21.583Z,100775.78
2022-11-25T15:33:54.512Z,100774.44
2022-11-25T15:36:24.265Z,100774.25
2022-11-25T15:38:52.678Z,100771.00
2022-11-25T15:41:36.306Z,100775.06
2022-11-25T15:44:15.669Z,100776.38
2022-11-25T15:46:50.716Z,100760.28
2022-11-25T15:49:18.625Z,100770.59
2022-11-25T15:51:54.401Z,100759.91
2022-11-25T15:54:29.246Z,100757.53
2022-11-25T15:57:02.668Z,100761.41
2022-11-25T15:59:42.953Z,100760.06
2022-11-25T16:02:46.120Z,100760.19
2022-11-25T16:05:14.728Z,100759.81
2022-11-25T16:07:51.849Z,100766.09
2022-11-25T16:10:33.805Z,100764.00
2022-11-25T16:13:24.338Z,100765.34
2022-11-25T16:15:53.372Z,100757.22
2022-11-25T16:18:39.799Z,100769.22
2022-11-25T16:21:12.799Z,100762.44
2022-11-25T16:23:48.481Z,100765.81
2022-11-25T16:26:24.612Z,100745.63
2022-11-25T16:28:57.180Z,100753.06
2022-11-25T16:31:25.466Z,100751.91
2022-11-25T16:34:14.543Z,100755.09
2022-11-25T16:36:43.546Z,100743.88
2022-11-25T16:39:11.534Z,100749.25
2022-11-25T16:41:41.119Z,100748.22
2022-11-25T16:44:27.615Z,100759.22
2022-11-25T16:46:55.788Z,100754.78
2022-11-25T16:49:23.876Z,100761.25
2022-11-25T16:51:51.976Z,100757.13
2022-11-25T16:54:25.711Z,100757.84
2022-11-25T16:56:54.121Z,100761.25
2022-11-25T16:59:28.384Z,100751.88
2022-11-25T17:01:56.362Z,100756.22
2022-11-25T17:04:25.632Z,100755.19
2022-11-25T17:07:30.443Z,100761.34
2022-11-25T17:09:44.412Z,100759.63
2022-11-25T17:12:18.462Z,100761.66
2022-11-25T17:14:47.685Z,100766.19
2022-11-25T17:17:24.406Z,100771.84
2022-11-25T17:19:53.373Z,100773.16
2022-11-25T17:22:24.329Z,100773.72
2022-11-25T17:24:52.367Z,100774.41
2022-11-25T17:27:31.033Z,100780.13
2022-11-25T17:30:00.087Z,100777.41
2022-11-25T17:32:28.437Z,100794.34
2022-11-25T17:37:38.769Z,100791.72
2022-11-25T17:40:07.563Z,100792.56
2022-11-25T17:42:36.024Z,100789.19
2022-11-25T17:45:04.484Z,100796.16
2022-11-25T17:47:32.710Z,100792.28
2022-11-25T17:50:02.035Z,100796.97
2022-11-25T17:52:30.923Z,100795.97
2022-11-25T17:54:58.819Z,100795.66
2022-11-25T17:57:38.703Z,100796.16
2022-11-25T18:00:13.019Z,100809.13
2022-11-25T18:02:41.381Z,100798.31
2022-11-25T18:05:17.620Z,100794.06
2022-11-25T18:07:46.231Z,100803.63
2022-11-25T18:10:18.821Z,100804.88
2022-11-25T18:12:47.560Z,100797.75
2022-11-25T18:15:27.771Z,100788.63
2022-11-25T18:18:21.088Z,100802.66
2022-11-25T18:20:50.283Z,100798.09
2022-11-25T18:23:20.001Z,100804.50
2022-11-25T18:25:50.931Z,100809.75
2022-11-25T18:28:22.291Z,100809.44
2022-11-25T18:30:50.244Z,100809.75
2022-11-25T18:33:18.948Z,100797.22
2022-11-25T18:35:47.310Z,100805.34
2022-11-25T18:38:17.918Z,100817.34
2022-11-25T18:40:51.874Z,100816.66
2022-11-25T18:43:25.694Z,100817.50
2022-11-25T18:45:54.296Z,100817.50
2022-11-25T18:48:23.924Z,100821.22
2022-11-25T18:50:53.142Z,100831.38
2022-11-25T18:53:21.210Z,100831.19
2022-11-25T18:55:49.258Z,100836.78
2022-11-25T18:58:20.529Z,100839.16
2022-11-25T19:00:51.252Z,100842.88
2022-11-25T19:03:21.431Z,100841.47
2022-11-25T19:05:50.271Z,100855.00
2022-11-25T19:08:18.875Z,100850.44
2022-11-25T19:10:47.660Z,100857.50
2022-11-25T19:13:21.033Z,100858.06
2022-11-25T19:15:49.543Z,100865.41
2022-11-25T19:18:24.299Z,100865.63
2022-11-25T19:20:52.678Z,100869.78
2022-11-25T19:23:25.772Z,100863.38
2022-11-25T19:26:00.107Z,100876.91
2022-11-25T19:28:28.931Z,100874.72
2022-11-25T19:30:59.576Z,100873.50
2022-11-25T19:33:35.014Z,100875.59
2022-11-25T19:36:03.116Z,100875.88
2022-11-25T19:38:33.067Z,100867.84
2022-11-25T19:41:01.657Z,100871.81
2022-11-25T19:43:29.624Z,100875.66
2022-11-25T19:45:57.855Z,100867.53
2022-11-25T19:48:29.678Z,100857.47
2022-11-25T19:51:02.443Z,100862.88
2022-11-25T19:53:33.911Z,100872.56
2022-11-25T19:56:04.942Z,100857.78
2022-11-25T19:58:34.888Z,100863.88
2022-11-25T20:01:04.058Z,100859.91
2022-11-25T20:03:32.083Z,100857.94
2022-11-25T20:06:00.097Z,100854.97
2022-11-25T20:08:29.158Z,100855.84
2022-11-25T20:10:57.849Z,100862.22
2022-11-25T20:13:26.429Z,100862.56
2022-11-25T20:15:56.070Z,100859.84
2022-11-25T20:18:29.895Z,100862.69
2022-11-25T20:21:08.589Z,100863.38
2022-11-25T20:23:43.369Z,100872.22
2022-11-25T20:26:27.512Z,100870.69
2022-11-25T20:28:56.194Z,100876.28
2022-11-25T20:31:30.698Z,100874.13
2022-11-25T20:33:58.977Z,100879.00
2022-11-25T20:36:31.171Z,100868.84
2022-11-25T20:39:00.038Z,100886.94
2022-11-25T20:41:28.293Z,100881.28
2022-11-25T20:43:56.659Z,100885.00
2022-11-25T20:46:27.229Z,100893.25
2022-11-25T20:48:56.914Z,100884.16
2022-11-25T20:51:24.931Z,100897.69
2022-11-25T20:53:55.699Z,100900.69
2022-11-25T20:56:24.936Z,100891.72
2022-11-25T20:58:53.137Z,100900.94
2022-11-25T21:01:21.122Z,100896.53
2022-11-25T21:03:49.652Z,100898.91
2022-11-25T21:06:20.505Z,100905.81
2022-11-25T21:08:50.070Z,100911.06
2022-11-25T21:11:21.823Z,100910.19
2022-11-25T21:13:49.997Z,100919.88
2022-11-25T21:16:18.236Z,100918.31
2022-11-25T21:18:46.580Z,100914.22
2022-11-25T21:21:29.347Z,100926.72
2022-11-25T21:24:15.583Z,100922.31
2022-11-25T21:26:43.445Z,100923.47
2022-11-25T21:29:24.629Z,100918.66
2022-11-25T21:31:53.234Z,100912.38
2022-11-25T21:34:21.691Z,100922.63
2022-11-25T21:36:52.006Z,100923.31
2022-11-25T21:39:28.479Z,100929.03
2022-11-25T21:41:59.328Z,100932.03
2022-11-25T21:44:32.438Z,100927.03
2022-11-25T21:47:00.687Z,100924.63
2022-11-25T21:49:29.151Z,100924.88
2022-11-25T21:51:57.669Z,100929.19
2022-11-25T21:54:25.625Z,100934.31
2022-11-25T21:56:58.125Z,100928.59
2022-11-25T21:59:25.958Z,100933.47
2022-11-25T22:01:55.546Z,100933.88
2022-11-25T22:04:23.910Z,100923.94
2022-11-25T22:06:52.133Z,100928.19
2022-11-25T22:09:20.172Z,100935.28
2022-11-25T22:11:48.727Z,100933.72
2022-11-25T22:14:28.949Z,100945.25
2022-11-25T22:16:56.991Z,100939.44
2022-11-25T22:19:25.668Z,100939.59
2022-11-25T22:21:53.786Z,100940.16
2022-11-25T22:24:25.200Z,100935.03
2022-11-25T22:26:57.736Z,100931.94
2022-11-25T22:29:31.815Z,100938.31
2022-11-25T22:31:59.793Z,100941.88
2022-11-25T22:34:27.698Z,100934.47
2022-11-25T22:36:55.551Z,100934.47
2022-11-25T22:39:24.584Z,100936.31
2022-11-25T22:42:01.142Z,100934.00
2022-11-25T22:44:43.048Z,100932.75
2022-11-25T22:47:35.422Z,100940.91
2022-11-25T22:50:05.964Z,100937.88
2022-11-25T22:52:35.590Z,100945.56
2022-11-25T22:55:16.945Z,100942.69
2022-11-25T22:57:45.013Z,100952.38
2022-11-25T23:00:20.251Z,100947.53
2022-11-25T23:02:48.514Z,100949.72
2022-11-25T23:05:31.843Z,100958.06
2022-11-25T23:08:02.415Z,100956.38
2022-11-25T23:10:31.377Z,100938.72
2022-11-25T23:12:59.230Z,100939.44
2022-11-25T23:15:27.281Z,100948.28
2022-11-25T23:18:00.056Z,100952.38
2022-11-25T23:20:33.035Z,100956.81
2022-11-25T23:23:18.216Z,100959.34
2022-11-25T23:25:46.361Z,100971.03
2022-11-25T23:28:14.918Z,100965.91
2022-11-25T23:30:47.735Z,100967.47
2022-11-25T23:33:25.920Z,100971.47
2022-11-25T23:35:53.870Z,100974.72
2022-11-25T23:38:22.975Z,100974.03
2022-11-25T23:40:50.901Z,100967.63
2022-11-25T23:43:18.908Z,100974.28
2022-11-25T23:45:52.540Z,100975.81
2022-11-25T23:48:23.035Z,100977.84
2022-11-25T23:50:51.069Z,100971.16
2022-11-25T23:53:26.149Z,100974.72
2022-11-25T23:55:54.128Z,100977.72
2022-11-25T23:58:29.623Z,100986.97
